• Join FlightAware (Why Join?)
  • Login
  • US Flag 
12:47PM EDT


 

Airport Tracker/Info


-or-


 

Live Flight TrackerFlight Track Log ✈ UAL4274 ✈ 25-Apr-2013 ✈ KLFT - KIAH

Flight Track Log - Related Links

Times and Time Zones

All times are in EDT time to prevent confusion due to time zone crossing. See the UAL4274 flight status page for this flight to view local times or setup timezone preferences in your user account.

Time Position Orientation Groundspeed Altitude Reporting Facility
EDT Latitude Longitude Course Direction KTS MPH feet Rate Location/Type
09:54AM 30.2050 -92.0550 227° Southwest 239 275 5,000  Level Houston Center
09:55AM 30.0403 -92.1907 229° Southwest  Level FlightAware Approximate
09:55AM 30.1597 -92.1203 231° Southwest 252 290 7,500  Level Houston Center
09:56AM 29.9974 -92.2646 229° Southwest  Level FlightAware Approximate
09:56AM 30.1125 -92.1881 231° Southwest 267 307 10,100  Level Houston Center
09:57AM 29.9450 -92.3345 229° Southwest  Level FlightAware Approximate
09:57AM 30.0589 -92.2653 231° Southwest 296 341 11,200  Level Houston Center
09:58AM 29.9022 -92.4099 249° West  Level FlightAware Approximate
09:58AM 29.9997 -92.3481 230° Southwest 329 379 13,200  Level Houston Center
09:59AM 29.8474 -92.4825 227° Southwest  Level FlightAware Approximate
09:59AM 29.9406 -92.4333 231° Southwest 338 389 15,200  Level Houston Center
10:00AM 29.8811 -92.5189 231° Southwest 340 391 16,000 300 Climbing Houston Center
10:01AM 29.8003 -92.6336 231° Southwest 379 436 15,900  Descending Houston Center
10:02AM 29.7339 -92.7267 231° Southwest 378 435 16,000  Climbing Houston Center
10:03AM 29.6667 -92.8222 231° Southwest 382 440 16,000  Level Houston Center
10:04AM 29.5989 -92.9164 230° Southwest 381 438 16,000  Level Houston Center
10:05AM 29.5347 -93.0058 231° Southwest 365 420 16,000  Level Houston Center
10:06AM 29.4883 -93.1069 242° Southwest 367 422 16,000  Level Houston Center
10:07AM 29.4917 -93.2483 272° West 367 422 16,000 -60 Level Houston Center
10:09AM 29.4964 -93.3678 273° West 373 429 15,900 -60 Descending Houston Center
10:10AM 29.5017 -93.4878 273° West 376 433 15,900  Level Houston Center
10:11AM 29.5058 -93.6072 272° West 373 429 15,900  Level Houston Center
10:12AM 29.5108 -93.7264 273° West 373 429 15,900  Level Houston Center
10:13AM 29.5153 -93.8481 272° West 378 435 15,900 -780 Level Houston Center
10:14AM 29.5200 -93.9911 272° West 371 427 14,300 -1,440 Descending Houston Center
10:15AM 29.5250 -94.1058 273° West 361 415 13,000 -660 Descending Houston Center
10:16AM 29.5292 -94.2139 273° West 358 412 13,000  Level Houston Center
10:17AM 29.5325 -94.3267 272° West 354 407 13,000 -840 Level Houston Center
10:18AM 29.5764 -94.4503 292° West 350 403 11,300 -1,500 Descending Houston Center
10:19AM 29.6217 -94.5525 297° West 361 415 10,000 -660 Descending Houston Center
10:20AM 29.6656 -94.6528 297° West 339 390 10,100  Climbing Houston Center
10:21AM 29.7064 -94.7511 296° West 337 388 10,100  Level Houston Center
10:22AM 29.7447 -94.8425 296° West 350 403 10,100  Level Houston Center
10:23AM 29.7878 -94.9431 296° West 349 402 10,100 -60 Level Houston Center
10:24AM 29.8283 -95.0392 296° West 301 346 10,000 -420 Descending Houston Center
10:24AM 29.8364 -95.0581 296° West 327 376 9,600 -1,680 Descending Houston Center
10:25AM 29.8667 -95.1333 295° West 280 322 8,100 -1,680 Descending Houston Center
10:26AM 29.8969 -95.2117 294° West 270 311 6,500 -1,080 Descending Houston Center
10:27AM 29.8989 -95.3006 271° West 270 311 6,000 -240 Descending Houston Center
10:28AM 29.8986 -95.3897 270° West 269 310 6,100 -420 Climbing Houston Center
10:29AM 29.8992 -95.4644 271° West 231 266 5,200 -1,080 Descending Houston Center
10:30AM 29.9056 -95.5336 276° West 215 247 4,000 -1,320 Descending Houston Center
10:30AM 29.9125 -95.5464 302° West 224 258 3,600 -1,020 Descending Houston Center
10:31AM 29.9556 -95.5300 18° North 195 224 3,000 -720 Descending Houston Center
10:31AM 29.9603 -95.5258 37° Northeast 209 241 2,900 -420 Descending Houston Center